sensor_id;sensor_type;location;lat;lon;timestamp;temperature;humidity
66032;DHT22;52799;45.654;13.810;2022-08-21T00:01:23;24.10;52.60
66032;DHT22;52799;45.654;13.810;2022-08-21T00:03:49;24.10;52.10
66032;DHT22;52799;45.654;13.810;2022-08-21T00:06:15;24.10;52.20
66032;DHT22;52799;45.654;13.810;2022-08-21T00:08:40;24.10;52.60
66032;DHT22;52799;45.654;13.810;2022-08-21T00:11:06;24.10;52.10
66032;DHT22;52799;45.654;13.810;2022-08-21T00:13:31;24.10;51.80
66032;DHT22;52799;45.654;13.810;2022-08-21T00:15:58;24.10;52.20
66032;DHT22;52799;45.654;13.810;2022-08-21T00:18:23;24.10;53.10
66032;DHT22;52799;45.654;13.810;2022-08-21T00:20:49;24.10;52.50
66032;DHT22;52799;45.654;13.810;2022-08-21T00:23:15;24.10;52.20
66032;DHT22;52799;45.654;13.810;2022-08-21T00:25:41;24.10;51.10
66032;DHT22;52799;45.654;13.810;2022-08-21T00:28:07;24.20;52.30
66032;DHT22;52799;45.654;13.810;2022-08-21T00:30:33;24.20;51.10
66032;DHT22;52799;45.654;13.810;2022-08-21T00:32:59;24.20;50.90
66032;DHT22;52799;45.654;13.810;2022-08-21T00:35:35;24.20;51.70
66032;DHT22;52799;45.654;13.810;2022-08-21T00:38:02;24.20;51.80
66032;DHT22;52799;45.654;13.810;2022-08-21T00:40:30;24.20;51.20
66032;DHT22;52799;45.654;13.810;2022-08-21T00:42:56;24.20;50.40
66032;DHT22;52799;45.654;13.810;2022-08-21T00:45:22;24.30;50.90
66032;DHT22;52799;45.654;13.810;2022-08-21T00:47:49;24.20;50.90
66032;DHT22;52799;45.654;13.810;2022-08-21T00:50:15;24.30;50.70
66032;DHT22;52799;45.654;13.810;2022-08-21T00:52:40;24.40;50.30
66032;DHT22;52799;45.654;13.810;2022-08-21T00:55:07;24.40;50.00
66032;DHT22;52799;45.654;13.810;2022-08-21T00:57:36;24.40;49.70
66032;DHT22;52799;45.654;13.810;2022-08-21T01:00:06;24.40;49.30
66032;DHT22;52799;45.654;13.810;2022-08-21T01:02:32;24.40;49.30
66032;DHT22;52799;45.654;13.810;2022-08-21T01:04:58;24.40;49.50
66032;DHT22;52799;45.654;13.810;2022-08-21T01:07:24;24.40;48.50
66032;DHT22;52799;45.654;13.810;2022-08-21T01:09:50;24.50;48.00
66032;DHT22;52799;45.654;13.810;2022-08-21T01:12:16;24.50;49.60
66032;DHT22;52799;45.654;13.810;2022-08-21T01:14:42;24.50;49.10
66032;DHT22;52799;45.654;13.810;2022-08-21T01:17:08;24.40;49.50
66032;DHT22;52799;45.654;13.810;2022-08-21T01:19:35;24.40;49.40
66032;DHT22;52799;45.654;13.810;2022-08-21T01:22:01;24.40;49.20
66032;DHT22;52799;45.654;13.810;2022-08-21T01:24:26;24.40;49.30
66032;DHT22;52799;45.654;13.810;2022-08-21T01:26:52;24.40;49.60
66032;DHT22;52799;45.654;13.810;2022-08-21T01:31:52;24.40;49.20
66032;DHT22;52799;45.654;13.810;2022-08-21T01:34:18;24.40;49.70
66032;DHT22;52799;45.654;13.810;2022-08-21T01:36:44;24.40;49.50
66032;DHT22;52799;45.654;13.810;2022-08-21T01:39:10;24.30;49.90
66032;DHT22;52799;45.654;13.810;2022-08-21T01:41:36;24.40;49.50
66032;DHT22;52799;45.654;13.810;2022-08-21T01:44:01;24.40;49.80
66032;DHT22;52799;45.654;13.810;2022-08-21T01:46:28;24.40;50.10
66032;DHT22;52799;45.654;13.810;2022-08-21T01:48:54;24.40;49.80
66032;DHT22;52799;45.654;13.810;2022-08-21T01:51:19;24.40;50.10
66032;DHT22;52799;45.654;13.810;2022-08-21T01:53:45;24.30;50.00
66032;DHT22;52799;45.654;13.810;2022-08-21T01:56:12;24.20;50.10
66032;DHT22;52799;45.654;13.810;2022-08-21T01:58:38;24.20;49.90
66032;DHT22;52799;45.654;13.810;2022-08-21T02:01:04;24.20;49.80
66032;DHT22;52799;45.654;13.810;2022-08-21T02:03:30;24.30;49.90
66032;DHT22;52799;45.654;13.810;2022-08-21T02:05:55;24.30;50.00
66032;DHT22;52799;45.654;13.810;2022-08-21T02:08:22;24.20;50.10
66032;DHT22;52799;45.654;13.810;2022-08-21T02:10:49;24.20;50.30
66032;DHT22;52799;45.654;13.810;2022-08-21T02:13:15;24.20;49.90
66032;DHT22;52799;45.654;13.810;2022-08-21T02:15:41;24.20;50.30
66032;DHT22;52799;45.654;13.810;2022-08-21T02:18:06;24.20;50.20
66032;DHT22;52799;45.654;13.810;2022-08-21T02:20:36;24.20;50.50
66032;DHT22;52799;45.654;13.810;2022-08-21T02:23:03;24.10;50.40
66032;DHT22;52799;45.654;13.810;2022-08-21T02:25:29;24.10;50.20
66032;DHT22;52799;45.654;13.810;2022-08-21T02:27:55;24.20;50.00
66032;DHT22;52799;45.654;13.810;2022-08-21T02:30:31;24.20;49.80
66032;DHT22;52799;45.654;13.810;2022-08-21T02:32:58;24.20;50.30
66032;DHT22;52799;45.654;13.810;2022-08-21T02:35:23;24.10;50.40
66032;DHT22;52799;45.654;13.810;2022-08-21T02:37:51;24.10;50.40
66032;DHT22;52799;45.654;13.810;2022-08-21T02:40:18;24.10;50.40
66032;DHT22;52799;45.654;13.810;2022-08-21T02:42:44;24.10;50.20
66032;DHT22;52799;45.654;13.810;2022-08-21T02:45:10;24.10;50.10
66032;DHT22;52799;45.654;13.810;2022-08-21T02:47:36;24.10;50.90
66032;DHT22;52799;45.654;13.810;2022-08-21T02:50:02;24.10;52.60
66032;DHT22;52799;45.654;13.810;2022-08-21T02:52:28;24.00;53.10
66032;DHT22;52799;45.654;13.810;2022-08-21T02:54:53;23.90;53.70
66032;DHT22;52799;45.654;13.810;2022-08-21T02:57:19;23.80;54.70
66032;DHT22;52799;45.654;13.810;2022-08-21T02:59:44;23.70;56.00
66032;DHT22;52799;45.654;13.810;2022-08-21T03:02:10;23.60;57.30
66032;DHT22;52799;45.654;13.810;2022-08-21T03:04:36;23.50;57.90
66032;DHT22;52799;45.654;13.810;2022-08-21T03:07:02;23.50;59.40
66032;DHT22;52799;45.654;13.810;2022-08-21T03:09:28;23.50;58.80
66032;DHT22;52799;45.654;13.810;2022-08-21T03:11:53;23.40;59.30
66032;DHT22;52799;45.654;13.810;2022-08-21T03:14:19;23.30;59.80
66032;DHT22;52799;45.654;13.810;2022-08-21T03:16:44;23.20;60.80
66032;DHT22;52799;45.654;13.810;2022-08-21T03:19:11;23.10;61.20
66032;DHT22;52799;45.654;13.810;2022-08-21T03:21:36;23.10;60.90
66032;DHT22;52799;45.654;13.810;2022-08-21T03:24:02;23.00;61.80
66032;DHT22;52799;45.654;13.810;2022-08-21T03:26:28;23.00;62.10
66032;DHT22;52799;45.654;13.810;2022-08-21T03:28:53;22.90;62.90
66032;DHT22;52799;45.654;13.810;2022-08-21T03:31:19;22.90;62.90
66032;DHT22;52799;45.654;13.810;2022-08-21T03:33:46;22.90;62.40
66032;DHT22;52799;45.654;13.810;2022-08-21T03:36:12;22.80;63.90
66032;DHT22;52799;45.654;13.810;2022-08-21T03:38:37;22.40;64.60
66032;DHT22;52799;45.654;13.810;2022-08-21T03:41:03;22.50;63.10
66032;DHT22;52799;45.654;13.810;2022-08-21T03:43:29;22.50;65.10
66032;DHT22;52799;45.654;13.810;2022-08-21T03:45:55;22.50;66.00
66032;DHT22;52799;45.654;13.810;2022-08-21T03:48:21;22.40;67.40
66032;DHT22;52799;45.654;13.810;2022-08-21T03:50:47;22.50;65.30
66032;DHT22;52799;45.654;13.810;2022-08-21T03:53:14;22.50;64.10
66032;DHT22;52799;45.654;13.810;2022-08-21T03:55:40;22.50;64.30
66032;DHT22;52799;45.654;13.810;2022-08-21T03:58:06;22.40;65.90
66032;DHT22;52799;45.654;13.810;2022-08-21T04:00:32;22.30;67.90
66032;DHT22;52799;45.654;13.810;2022-08-21T04:02:57;22.30;67.50
66032;DHT22;52799;45.654;13.810;2022-08-21T04:05:23;22.30;67.20
66032;DHT22;52799;45.654;13.810;2022-08-21T04:07:56;22.30;67.20
66032;DHT22;52799;45.654;13.810;2022-08-21T04:10:22;22.20;68.10
66032;DHT22;52799;45.654;13.810;2022-08-21T04:12:49;22.20;68.40
66032;DHT22;52799;45.654;13.810;2022-08-21T04:15:15;22.10;67.00
66032;DHT22;52799;45.654;13.810;2022-08-21T04:17:41;22.10;66.80
66032;DHT22;52799;45.654;13.810;2022-08-21T04:20:07;22.10;69.10
66032;DHT22;52799;45.654;13.810;2022-08-21T04:22:32;22.10;67.70
66032;DHT22;52799;45.654;13.810;2022-08-21T04:24:58;22.00;68.80
66032;DHT22;52799;45.654;13.810;2022-08-21T04:27:24;22.10;68.10
66032;DHT22;52799;45.654;13.810;2022-08-21T04:29:49;22.00;68.70
66032;DHT22;52799;45.654;13.810;2022-08-21T04:32:21;22.00;68.40
66032;DHT22;52799;45.654;13.810;2022-08-21T04:34:46;22.10;68.20
66032;DHT22;52799;45.654;13.810;2022-08-21T04:37:12;22.10;69.00
66032;DHT22;52799;45.654;13.810;2022-08-21T04:39:37;22.10;67.70
66032;DHT22;52799;45.654;13.810;2022-08-21T04:42:03;22.10;69.30
66032;DHT22;52799;45.654;13.810;2022-08-21T04:44:32;22.00;70.40
66032;DHT22;52799;45.654;13.810;2022-08-21T04:46:57;22.00;70.70
66032;DHT22;52799;45.654;13.810;2022-08-21T04:49:23;22.00;70.60
66032;DHT22;52799;45.654;13.810;2022-08-21T04:51:48;22.00;70.90
66032;DHT22;52799;45.654;13.810;2022-08-21T04:54:17;22.00;69.80
66032;DHT22;52799;45.654;13.810;2022-08-21T04:56:48;22.00;68.90
66032;DHT22;52799;45.654;13.810;2022-08-21T04:59:23;22.10;68.50
66032;DHT22;52799;45.654;13.810;2022-08-21T05:01:49;22.10;69.50
66032;DHT22;52799;45.654;13.810;2022-08-21T05:04:16;22.10;68.20
66032;DHT22;52799;45.654;13.810;2022-08-21T05:06:44;22.20;70.50
66032;DHT22;52799;45.654;13.810;2022-08-21T05:09:12;22.20;69.30
66032;DHT22;52799;45.654;13.810;2022-08-21T05:11:39;22.30;68.40
66032;DHT22;52799;45.654;13.810;2022-08-21T05:14:05;22.30;70.60
66032;DHT22;52799;45.654;13.810;2022-08-21T05:16:31;22.40;69.10
66032;DHT22;52799;45.654;13.810;2022-08-21T05:18:56;22.30;71.80
66032;DHT22;52799;45.654;13.810;2022-08-21T05:21:22;22.30;72.60
66032;DHT22;52799;45.654;13.810;2022-08-21T05:23:47;22.20;72.80
66032;DHT22;52799;45.654;13.810;2022-08-21T05:26:13;22.30;72.10
66032;DHT22;52799;45.654;13.810;2022-08-21T05:28:38;22.30;71.60
66032;DHT22;52799;45.654;13.810;2022-08-21T05:31:04;22.40;71.60
66032;DHT22;52799;45.654;13.810;2022-08-21T05:33:30;22.30;70.90
66032;DHT22;52799;45.654;13.810;2022-08-21T05:35:55;22.40;71.60
66032;DHT22;52799;45.654;13.810;2022-08-21T05:38:24;22.50;70.00
66032;DHT22;52799;45.654;13.810;2022-08-21T05:40:52;22.40;72.00
66032;DHT22;52799;45.654;13.810;2022-08-21T05:43:18;22.40;72.80
66032;DHT22;52799;45.654;13.810;2022-08-21T05:45:43;22.20;73.20
66032;DHT22;52799;45.654;13.810;2022-08-21T05:48:13;22.30;71.60
66032;DHT22;52799;45.654;13.810;2022-08-21T05:50:40;22.20;72.60
66032;DHT22;52799;45.654;13.810;2022-08-21T05:53:06;22.30;72.60
66032;DHT22;52799;45.654;13.810;2022-08-21T05:55:32;22.20;71.70
66032;DHT22;52799;45.654;13.810;2022-08-21T05:57:57;22.20;73.00
66032;DHT22;52799;45.654;13.810;2022-08-21T06:00:24;22.20;71.40
66032;DHT22;52799;45.654;13.810;2022-08-21T06:02:49;22.40;69.90
66032;DHT22;52799;45.654;13.810;2022-08-21T06:05:16;22.50;69.40
66032;DHT22;52799;45.654;13.810;2022-08-21T06:07:41;22.90;68.20
66032;DHT22;52799;45.654;13.810;2022-08-21T06:10:07;23.40;65.90
66032;DHT22;52799;45.654;13.810;2022-08-21T06:12:33;23.90;63.50
66032;DHT22;52799;45.654;13.810;2022-08-21T06:14:58;24.30;62.40
66032;DHT22;52799;45.654;13.810;2022-08-21T06:17:24;24.70;61.50
66032;DHT22;52799;45.654;13.810;2022-08-21T06:19:51;25.10;60.50
66032;DHT22;52799;45.654;13.810;2022-08-21T06:22:16;25.40;62.00
66032;DHT22;52799;45.654;13.810;2022-08-21T06:24:42;25.70;60.30
66032;DHT22;52799;45.654;13.810;2022-08-21T06:27:08;25.90;61.20
66032;DHT22;52799;45.654;13.810;2022-08-21T06:29:34;26.10;59.50
66032;DHT22;52799;45.654;13.810;2022-08-21T06:32:00;26.40;59.40
66032;DHT22;52799;45.654;13.810;2022-08-21T06:34:26;26.60;59.00
66032;DHT22;52799;45.654;13.810;2022-08-21T06:36:52;26.80;58.60
66032;DHT22;52799;45.654;13.810;2022-08-21T06:39:17;27.00;56.30
66032;DHT22;52799;45.654;13.810;2022-08-21T06:41:43;27.10;56.50
66032;DHT22;52799;45.654;13.810;2022-08-21T06:44:08;27.30;55.30
66032;DHT22;52799;45.654;13.810;2022-08-21T06:46:34;27.50;53.70
66032;DHT22;52799;45.654;13.810;2022-08-21T06:49:00;27.60;51.90
66032;DHT22;52799;45.654;13.810;2022-08-21T06:51:25;27.40;52.10
66032;DHT22;52799;45.654;13.810;2022-08-21T06:53:51;27.00;55.50
66032;DHT22;52799;45.654;13.810;2022-08-21T06:56:17;26.70;55.90
66032;DHT22;52799;45.654;13.810;2022-08-21T06:58:43;26.40;57.00
66032;DHT22;52799;45.654;13.810;2022-08-21T07:01:08;26.50;60.60
66032;DHT22;52799;45.654;13.810;2022-08-21T07:03:36;26.70;59.40
66032;DHT22;52799;45.654;13.810;2022-08-21T07:06:02;27.00;59.30
66032;DHT22;52799;45.654;13.810;2022-08-21T07:08:28;27.30;55.30
66032;DHT22;52799;45.654;13.810;2022-08-21T07:10:55;27.70;55.60
66032;DHT22;52799;45.654;13.810;2022-08-21T07:13:21;27.90;53.70
66032;DHT22;52799;45.654;13.810;2022-08-21T07:15:47;28.10;48.00
66032;DHT22;52799;45.654;13.810;2022-08-21T07:18:12;28.20;46.20
66032;DHT22;52799;45.654;13.810;2022-08-21T07:20:38;28.30;45.80
66032;DHT22;52799;45.654;13.810;2022-08-21T07:23:05;28.30;46.50
66032;DHT22;52799;45.654;13.810;2022-08-21T07:25:31;28.30;48.50
66032;DHT22;52799;45.654;13.810;2022-08-21T07:27:56;28.40;47.90
66032;DHT22;52799;45.654;13.810;2022-08-21T07:30:22;28.40;49.10
66032;DHT22;52799;45.654;13.810;2022-08-21T07:32:48;28.50;48.90
66032;DHT22;52799;45.654;13.810;2022-08-21T07:35:17;28.60;46.90
66032;DHT22;52799;45.654;13.810;2022-08-21T07:37:42;28.30;46.10
66032;DHT22;52799;45.654;13.810;2022-08-21T07:40:08;28.30;46.60
66032;DHT22;52799;45.654;13.810;2022-08-21T07:42:33;28.20;47.40
66032;DHT22;52799;45.654;13.810;2022-08-21T07:44:59;27.80;48.50
66032;DHT22;52799;45.654;13.810;2022-08-21T07:47:25;27.80;48.50
66032;DHT22;52799;45.654;13.810;2022-08-21T07:49:50;27.70;47.60
66032;DHT22;52799;45.654;13.810;2022-08-21T07:52:16;27.70;49.10
66032;DHT22;52799;45.654;13.810;2022-08-21T07:54:41;27.70;48.30
66032;DHT22;52799;45.654;13.810;2022-08-21T07:57:07;27.70;48.60
66032;DHT22;52799;45.654;13.810;2022-08-21T07:59:32;27.70;51.30
66032;DHT22;52799;45.654;13.810;2022-08-21T08:01:58;27.80;51.40
66032;DHT22;52799;45.654;13.810;2022-08-21T08:04:24;27.80;50.50
66032;DHT22;52799;45.654;13.810;2022-08-21T08:06:50;27.40;50.80
66032;DHT22;52799;45.654;13.810;2022-08-21T08:09:15;27.70;49.90
66032;DHT22;52799;45.654;13.810;2022-08-21T08:11:42;27.90;50.00
66032;DHT22;52799;45.654;13.810;2022-08-21T08:14:10;28.30;50.60
66032;DHT22;52799;45.654;13.810;2022-08-21T08:16:36;28.50;50.60
66032;DHT22;52799;45.654;13.810;2022-08-21T08:19:01;28.60;50.10
66032;DHT22;52799;45.654;13.810;2022-08-21T08:21:27;28.60;49.90
66032;DHT22;52799;45.654;13.810;2022-08-21T08:23:53;28.70;49.60
66032;DHT22;52799;45.654;13.810;2022-08-21T08:26:19;28.60;48.90
66032;DHT22;52799;45.654;13.810;2022-08-21T08:28:45;28.60;49.00
66032;DHT22;52799;45.654;13.810;2022-08-21T08:31:13;28.80;48.30
66032;DHT22;52799;45.654;13.810;2022-08-21T08:33:39;28.80;47.50
66032;DHT22;52799;45.654;13.810;2022-08-21T08:36:04;28.80;48.00
66032;DHT22;52799;45.654;13.810;2022-08-21T08:38:30;28.80;47.60
66032;DHT22;52799;45.654;13.810;2022-08-21T08:41:10;28.60;48.10
66032;DHT22;52799;45.654;13.810;2022-08-21T08:43:37;28.20;49.20
66032;DHT22;52799;45.654;13.810;2022-08-21T08:46:04;28.10;49.50
66032;DHT22;52799;45.654;13.810;2022-08-21T08:48:34;28.10;50.80
66032;DHT22;52799;45.654;13.810;2022-08-21T08:51:01;28.30;51.20
66032;DHT22;52799;45.654;13.810;2022-08-21T08:53:37;28.40;49.40
66032;DHT22;52799;45.654;13.810;2022-08-21T08:56:07;28.50;49.80
66032;DHT22;52799;45.654;13.810;2022-08-21T08:58:34;28.10;49.80
66032;DHT22;52799;45.654;13.810;2022-08-21T09:01:03;27.70;49.90
66032;DHT22;52799;45.654;13.810;2022-08-21T09:03:30;27.40;51.70
66032;DHT22;52799;45.654;13.810;2022-08-21T09:06:08;27.30;51.90
66032;DHT22;52799;45.654;13.810;2022-08-21T09:08:58;27.30;51.60
66032;DHT22;52799;45.654;13.810;2022-08-21T09:16:29;27.50;51.40
66032;DHT22;52799;45.654;13.810;2022-08-21T09:21:43;27.60;52.30
66032;DHT22;52799;45.654;13.810;2022-08-21T09:29:41;27.80;50.00
66032;DHT22;52799;45.654;13.810;2022-08-21T09:32:18;27.80;50.30
66032;DHT22;52799;45.654;13.810;2022-08-21T09:34:58;28.10;51.00
66032;DHT22;52799;45.654;13.810;2022-08-21T09:37:25;28.30;51.20
66032;DHT22;52799;45.654;13.810;2022-08-21T09:39:51;28.40;50.60
66032;DHT22;52799;45.654;13.810;2022-08-21T09:42:25;28.50;50.30
66032;DHT22;52799;45.654;13.810;2022-08-21T09:45:04;28.30;48.40
66032;DHT22;52799;45.654;13.810;2022-08-21T09:47:30;28.30;49.10
66032;DHT22;52799;45.654;13.810;2022-08-21T09:49:56;28.40;50.00
66032;DHT22;52799;45.654;13.810;2022-08-21T09:52:32;28.30;48.10
66032;DHT22;52799;45.654;13.810;2022-08-21T09:54:58;28.10;48.90
66032;DHT22;52799;45.654;13.810;2022-08-21T09:57:27;27.80;49.00
66032;DHT22;52799;45.654;13.810;2022-08-21T10:00:15;27.60;50.40
66032;DHT22;52799;45.654;13.810;2022-08-21T10:02:43;27.80;49.40
66032;DHT22;52799;45.654;13.810;2022-08-21T10:05:16;27.90;48.30
66032;DHT22;52799;45.654;13.810;2022-08-21T10:07:42;27.70;48.40
66032;DHT22;52799;45.654;13.810;2022-08-21T10:10:14;27.40;49.40
66032;DHT22;52799;45.654;13.810;2022-08-21T10:12:42;27.70;49.90
66032;DHT22;52799;45.654;13.810;2022-08-21T10:15:17;27.90;48.60
66032;DHT22;52799;45.654;13.810;2022-08-21T10:17:52;27.80;48.40
66032;DHT22;52799;45.654;13.810;2022-08-21T10:20:23;27.70;48.40
66032;DHT22;52799;45.654;13.810;2022-08-21T10:25:20;28.00;48.10
66032;DHT22;52799;45.654;13.810;2022-08-21T10:27:55;28.00;48.80
66032;DHT22;52799;45.654;13.810;2022-08-21T10:30:48;28.20;49.60
66032;DHT22;52799;45.654;13.810;2022-08-21T10:33:26;28.40;50.00
66032;DHT22;52799;45.654;13.810;2022-08-21T10:48:24;29.00;49.90
66032;DHT22;52799;45.654;13.810;2022-08-21T10:53:54;29.10;49.80
66032;DHT22;52799;45.654;13.810;2022-08-21T11:01:24;29.10;48.50
66032;DHT22;52799;45.654;13.810;2022-08-21T11:04:26;29.00;47.40
66032;DHT22;52799;45.654;13.810;2022-08-21T11:06:49;29.00;47.70
66032;DHT22;52799;45.654;13.810;2022-08-21T11:09:18;29.20;46.20
66032;DHT22;52799;45.654;13.810;2022-08-21T11:14:30;29.10;46.40
66032;DHT22;52799;45.654;13.810;2022-08-21T11:17:09;28.80;43.30
66032;DHT22;52799;45.654;13.810;2022-08-21T11:19:48;28.50;45.40
66032;DHT22;52799;45.654;13.810;2022-08-21T11:27:26;28.00;45.10
66032;DHT22;52799;45.654;13.810;2022-08-21T11:29:55;28.00;44.70
66032;DHT22;52799;45.654;13.810;2022-08-21T11:37:49;27.80;44.30
66032;DHT22;52799;45.654;13.810;2022-08-21T11:42:55;28.20;47.30
66032;DHT22;52799;45.654;13.810;2022-08-21T11:45:26;28.60;46.40
66032;DHT22;52799;45.654;13.810;2022-08-21T11:48:07;28.70;45.90
66032;DHT22;52799;45.654;13.810;2022-08-21T11:50:35;28.80;45.70
66032;DHT22;52799;45.654;13.810;2022-08-21T11:55:38;28.20;45.70
66032;DHT22;52799;45.654;13.810;2022-08-21T12:00:46;28.40;47.20
66032;DHT22;52799;45.654;13.810;2022-08-21T12:06:14;28.50;48.30
66032;DHT22;52799;45.654;13.810;2022-08-21T12:08:40;28.20;48.40
66032;DHT22;52799;45.654;13.810;2022-08-21T12:13:56;28.70;47.30
66032;DHT22;52799;45.654;13.810;2022-08-21T12:16:36;28.40;47.90
66032;DHT22;52799;45.654;13.810;2022-08-21T12:19:12;28.00;49.00
66032;DHT22;52799;45.654;13.810;2022-08-21T12:21:52;28.00;49.90
66032;DHT22;52799;45.654;13.810;2022-08-21T12:24:19;28.00;51.50
66032;DHT22;52799;45.654;13.810;2022-08-21T12:26:54;28.40;49.90
66032;DHT22;52799;45.654;13.810;2022-08-21T12:29:33;28.80;48.40
66032;DHT22;52799;45.654;13.810;2022-08-21T12:34:48;28.80;48.10
66032;DHT22;52799;45.654;13.810;2022-08-21T12:37:24;28.70;47.30
66032;DHT22;52799;45.654;13.810;2022-08-21T12:39:51;28.90;49.10
66032;DHT22;52799;45.654;13.810;2022-08-21T12:42:23;29.10;49.20
66032;DHT22;52799;45.654;13.810;2022-08-21T12:49:47;29.80;47.90
66032;DHT22;52799;45.654;13.810;2022-08-21T12:52:20;29.80;47.70
66032;DHT22;52799;45.654;13.810;2022-08-21T12:54:46;29.80;47.20
66032;DHT22;52799;45.654;13.810;2022-08-21T12:57:25;29.90;47.30
66032;DHT22;52799;45.654;13.810;2022-08-21T12:59:52;29.80;47.00
66032;DHT22;52799;45.654;13.810;2022-08-21T13:02:18;29.50;47.00
66032;DHT22;52799;45.654;13.810;2022-08-21T13:04:45;29.70;47.70
66032;DHT22;52799;45.654;13.810;2022-08-21T13:07:12;29.80;47.40
66032;DHT22;52799;45.654;13.810;2022-08-21T13:09:51;29.50;47.40
66032;DHT22;52799;45.654;13.810;2022-08-21T13:12:17;29.70;48.20
66032;DHT22;52799;45.654;13.810;2022-08-21T13:14:44;29.80;48.70
66032;DHT22;52799;45.654;13.810;2022-08-21T13:17:12;29.70;47.30
66032;DHT22;52799;45.654;13.810;2022-08-21T13:19:38;29.50;47.60
66032;DHT22;52799;45.654;13.810;2022-08-21T13:22:03;29.20;49.50
66032;DHT22;52799;45.654;13.810;2022-08-21T13:24:37;29.40;49.20
66032;DHT22;52799;45.654;13.810;2022-08-21T13:27:03;29.60;48.70
66032;DHT22;52799;45.654;13.810;2022-08-21T13:29:30;29.70;48.70
66032;DHT22;52799;45.654;13.810;2022-08-21T13:31:57;29.10;48.50
66032;DHT22;52799;45.654;13.810;2022-08-21T13:34:24;28.70;50.60
66032;DHT22;52799;45.654;13.810;2022-08-21T13:36:51;29.00;50.30
66032;DHT22;52799;45.654;13.810;2022-08-21T13:39:18;29.20;49.60
66032;DHT22;52799;45.654;13.810;2022-08-21T13:41:44;29.50;49.90
66032;DHT22;52799;45.654;13.810;2022-08-21T13:44:24;29.70;49.90
66032;DHT22;52799;45.654;13.810;2022-08-21T13:46:56;29.80;48.50
66032;DHT22;52799;45.654;13.810;2022-08-21T13:49:33;29.70;49.20
66032;DHT22;52799;45.654;13.810;2022-08-21T13:51:59;29.70;50.50
66032;DHT22;52799;45.654;13.810;2022-08-21T13:54:35;29.00;49.50
66032;DHT22;52799;45.654;13.810;2022-08-21T13:57:02;28.70;50.60
66032;DHT22;52799;45.654;13.810;2022-08-21T13:59:30;29.20;51.00
66032;DHT22;52799;45.654;13.810;2022-08-21T14:06:50;28.70;45.20
66032;DHT22;52799;45.654;13.810;2022-08-21T14:11:51;28.40;44.30
66032;DHT22;52799;45.654;13.810;2022-08-21T14:14:22;28.50;45.40
66032;DHT22;52799;45.654;13.810;2022-08-21T14:16:56;28.60;44.60
66032;DHT22;52799;45.654;13.810;2022-08-21T14:19:24;29.00;45.70
66032;DHT22;52799;45.654;13.810;2022-08-21T14:21:51;29.20;43.70
66032;DHT22;52799;45.654;13.810;2022-08-21T14:26:49;29.50;44.20
66032;DHT22;52799;45.654;13.810;2022-08-21T14:29:16;29.70;42.50
66032;DHT22;52799;45.654;13.810;2022-08-21T14:31:42;29.60;42.80
66032;DHT22;52799;45.654;13.810;2022-08-21T14:34:09;29.60;44.90
66032;DHT22;52799;45.654;13.810;2022-08-21T14:36:35;29.70;45.50
66032;DHT22;52799;45.654;13.810;2022-08-21T14:39:01;29.90;43.70
66032;DHT22;52799;45.654;13.810;2022-08-21T14:41:27;29.90;42.50
66032;DHT22;52799;45.654;13.810;2022-08-21T14:43:54;29.90;41.40
66032;DHT22;52799;45.654;13.810;2022-08-21T14:46:22;29.70;41.70
66032;DHT22;52799;45.654;13.810;2022-08-21T14:48:49;29.50;43.70
66032;DHT22;52799;45.654;13.810;2022-08-21T14:51:14;29.60;43.80
66032;DHT22;52799;45.654;13.810;2022-08-21T14:53:40;28.90;42.20
66032;DHT22;52799;45.654;13.810;2022-08-21T14:56:06;28.20;43.30
66032;DHT22;52799;45.654;13.810;2022-08-21T14:58:36;28.30;45.10
66032;DHT22;52799;45.654;13.810;2022-08-21T15:01:02;28.50;43.90
66032;DHT22;52799;45.654;13.810;2022-08-21T15:03:29;28.70;45.00
66032;DHT22;52799;45.654;13.810;2022-08-21T15:05:55;28.80;44.70
66032;DHT22;52799;45.654;13.810;2022-08-21T15:08:20;28.80;44.00
66032;DHT22;52799;45.654;13.810;2022-08-21T15:10:46;28.70;43.80
66032;DHT22;52799;45.654;13.810;2022-08-21T15:13:12;28.70;44.50
66032;DHT22;52799;45.654;13.810;2022-08-21T15:15:40;28.20;42.70
66032;DHT22;52799;45.654;13.810;2022-08-21T15:18:06;28.10;43.70
66032;DHT22;52799;45.654;13.810;2022-08-21T15:20:33;28.10;43.20
66032;DHT22;52799;45.654;13.810;2022-08-21T15:22:59;27.80;44.20
66032;DHT22;52799;45.654;13.810;2022-08-21T15:25:25;27.50;50.00
66032;DHT22;52799;45.654;13.810;2022-08-21T15:27:50;27.00;52.00
66032;DHT22;52799;45.654;13.810;2022-08-21T15:30:16;27.10;53.10
66032;DHT22;52799;45.654;13.810;2022-08-21T15:32:42;26.70;54.90
66032;DHT22;52799;45.654;13.810;2022-08-21T15:35:08;26.30;55.60
66032;DHT22;52799;45.654;13.810;2022-08-21T15:37:33;26.20;57.20
66032;DHT22;52799;45.654;13.810;2022-08-21T15:39:59;26.20;56.70
66032;DHT22;52799;45.654;13.810;2022-08-21T15:42:25;26.20;57.20
66032;DHT22;52799;45.654;13.810;2022-08-21T15:44:55;25.90;59.70
66032;DHT22;52799;45.654;13.810;2022-08-21T15:47:21;25.70;60.90
66032;DHT22;52799;45.654;13.810;2022-08-21T15:49:47;25.70;61.40
66032;DHT22;52799;45.654;13.810;2022-08-21T15:52:17;25.50;63.40
66032;DHT22;52799;45.654;13.810;2022-08-21T15:54:43;25.40;64.00
66032;DHT22;52799;45.654;13.810;2022-08-21T15:57:09;25.30;66.20
66032;DHT22;52799;45.654;13.810;2022-08-21T15:59:39;25.30;63.50
66032;DHT22;52799;45.654;13.810;2022-08-21T16:02:07;25.30;65.10
66032;DHT22;52799;45.654;13.810;2022-08-21T16:04:32;25.40;66.90
66032;DHT22;52799;45.654;13.810;2022-08-21T16:06:58;25.50;67.50
66032;DHT22;52799;45.654;13.810;2022-08-21T16:09:23;25.40;67.20
66032;DHT22;52799;45.654;13.810;2022-08-21T16:11:49;25.50;66.70
66032;DHT22;52799;45.654;13.810;2022-08-21T16:14:15;25.50;66.60
66032;DHT22;52799;45.654;13.810;2022-08-21T16:16:41;25.50;67.10
66032;DHT22;52799;45.654;13.810;2022-08-21T16:19:06;25.50;68.00
66032;DHT22;52799;45.654;13.810;2022-08-21T16:21:33;25.10;70.90
66032;DHT22;52799;45.654;13.810;2022-08-21T16:23:58;24.90;70.80
66032;DHT22;52799;45.654;13.810;2022-08-21T16:26:24;24.80;72.90
66032;DHT22;52799;45.654;13.810;2022-08-21T16:28:50;24.80;72.80
66032;DHT22;52799;45.654;13.810;2022-08-21T16:31:17;24.90;72.30
66032;DHT22;52799;45.654;13.810;2022-08-21T16:33:43;25.00;69.70
66032;DHT22;52799;45.654;13.810;2022-08-21T16:36:10;25.00;67.60
66032;DHT22;52799;45.654;13.810;2022-08-21T16:38:36;25.00;67.20
66032;DHT22;52799;45.654;13.810;2022-08-21T16:41:06;24.90;67.40